sensor_id;sensor_type;location;lat;lon;timestamp;temperature;humidity
47845;DHT22;33605;48.822;8.796;2023-01-08T00:02:16;9.30;56.80
47845;DHT22;33605;48.822;8.796;2023-01-08T00:04:42;9.30;56.90
47845;DHT22;33605;48.822;8.796;2023-01-08T00:07:08;9.30;56.80
47845;DHT22;33605;48.822;8.796;2023-01-08T00:09:33;9.40;56.90
47845;DHT22;33605;48.822;8.796;2023-01-08T00:11:59;9.40;56.80
47845;DHT22;33605;48.822;8.796;2023-01-08T00:14:25;9.40;56.90
47845;DHT22;33605;48.822;8.796;2023-01-08T00:16:50;9.30;56.80
47845;DHT22;33605;48.822;8.796;2023-01-08T00:19:16;9.40;57.00
47845;DHT22;33605;48.822;8.796;2023-01-08T00:21:42;9.40;56.80
47845;DHT22;33605;48.822;8.796;2023-01-08T00:24:09;9.40;56.80
47845;DHT22;33605;48.822;8.796;2023-01-08T00:26:35;9.40;56.70
47845;DHT22;33605;48.822;8.796;2023-01-08T00:29:00;9.40;56.60
47845;DHT22;33605;48.822;8.796;2023-01-08T00:31:26;9.50;56.60
47845;DHT22;33605;48.822;8.796;2023-01-08T00:33:51;9.50;56.50
47845;DHT22;33605;48.822;8.796;2023-01-08T00:36:18;9.60;56.50
47845;DHT22;33605;48.822;8.796;2023-01-08T00:38:44;9.60;56.40
47845;DHT22;33605;48.822;8.796;2023-01-08T00:41:12;9.60;56.50
47845;DHT22;33605;48.822;8.796;2023-01-08T00:43:38;9.70;56.50
47845;DHT22;33605;48.822;8.796;2023-01-08T00:46:04;9.70;56.30
47845;DHT22;33605;48.822;8.796;2023-01-08T00:48:30;9.70;56.20
47845;DHT22;33605;48.822;8.796;2023-01-08T00:51:00;9.70;56.10
47845;DHT22;33605;48.822;8.796;2023-01-08T00:53:26;9.70;56.10
47845;DHT22;33605;48.822;8.796;2023-01-08T00:55:59;9.70;56.00
47845;DHT22;33605;48.822;8.796;2023-01-08T00:58:25;9.70;56.00
47845;DHT22;33605;48.822;8.796;2023-01-08T01:00:51;9.70;55.80
47845;DHT22;33605;48.822;8.796;2023-01-08T01:03:16;9.70;55.80
47845;DHT22;33605;48.822;8.796;2023-01-08T01:05:42;9.60;55.70
47845;DHT22;33605;48.822;8.796;2023-01-08T01:08:07;9.60;55.70
47845;DHT22;33605;48.822;8.796;2023-01-08T01:10:33;9.60;55.70
47845;DHT22;33605;48.822;8.796;2023-01-08T01:12:58;9.60;55.80
47845;DHT22;33605;48.822;8.796;2023-01-08T01:15:24;9.50;55.60
47845;DHT22;33605;48.822;8.796;2023-01-08T01:17:50;9.60;55.70
47845;DHT22;33605;48.822;8.796;2023-01-08T01:20:15;9.60;55.70
47845;DHT22;33605;48.822;8.796;2023-01-08T01:22:42;9.50;55.60
47845;DHT22;33605;48.822;8.796;2023-01-08T01:25:08;9.50;55.50
47845;DHT22;33605;48.822;8.796;2023-01-08T01:27:34;9.60;55.60
47845;DHT22;33605;48.822;8.796;2023-01-08T01:30:00;9.50;55.60
47845;DHT22;33605;48.822;8.796;2023-01-08T01:32:25;9.50;55.60
47845;DHT22;33605;48.822;8.796;2023-01-08T01:34:51;9.50;55.50
47845;DHT22;33605;48.822;8.796;2023-01-08T01:37:17;9.60;55.60
47845;DHT22;33605;48.822;8.796;2023-01-08T01:39:42;9.60;55.50
47845;DHT22;33605;48.822;8.796;2023-01-08T01:42:12;9.60;55.50
47845;DHT22;33605;48.822;8.796;2023-01-08T01:44:58;9.60;55.50
47845;DHT22;33605;48.822;8.796;2023-01-08T01:47:32;9.60;55.40
47845;DHT22;33605;48.822;8.796;2023-01-08T01:50:13;9.70;55.40
47845;DHT22;33605;48.822;8.796;2023-01-08T01:52:46;9.70;55.50
47845;DHT22;33605;48.822;8.796;2023-01-08T01:55:13;9.70;55.40
47845;DHT22;33605;48.822;8.796;2023-01-08T01:57:45;9.70;55.30
47845;DHT22;33605;48.822;8.796;2023-01-08T02:00:13;9.70;55.30
47845;DHT22;33605;48.822;8.796;2023-01-08T02:02:39;9.70;55.30
47845;DHT22;33605;48.822;8.796;2023-01-08T02:05:05;9.80;55.30
47845;DHT22;33605;48.822;8.796;2023-01-08T02:07:48;9.80;55.30
47845;DHT22;33605;48.822;8.796;2023-01-08T02:10:31;9.80;55.30
47845;DHT22;33605;48.822;8.796;2023-01-08T02:13:19;9.80;55.20
47845;DHT22;33605;48.822;8.796;2023-01-08T02:18:36;9.80;55.10
47845;DHT22;33605;48.822;8.796;2023-01-08T02:21:22;9.80;55.10
47845;DHT22;33605;48.822;8.796;2023-01-08T02:24:02;9.80;55.00
47845;DHT22;33605;48.822;8.796;2023-01-08T02:26:34;9.90;55.00
47845;DHT22;33605;48.822;8.796;2023-01-08T02:29:14;9.90;55.00
47845;DHT22;33605;48.822;8.796;2023-01-08T02:31:42;9.90;55.00
47845;DHT22;33605;48.822;8.796;2023-01-08T02:34:08;9.90;54.90
47845;DHT22;33605;48.822;8.796;2023-01-08T02:36:40;10.00;53.80
47845;DHT22;33605;48.822;8.796;2023-01-08T02:45:30;10.00;53.50
47845;DHT22;33605;48.822;8.796;2023-01-08T02:50:36;10.10;53.40
47845;DHT22;33605;48.822;8.796;2023-01-08T02:53:19;10.10;53.30
47845;DHT22;33605;48.822;8.796;2023-01-08T02:55:53;10.10;53.30
47845;DHT22;33605;48.822;8.796;2023-01-08T02:58:19;10.10;53.20
47845;DHT22;33605;48.822;8.796;2023-01-08T03:00:47;10.10;53.10
47845;DHT22;33605;48.822;8.796;2023-01-08T03:03:19;10.10;53.00
47845;DHT22;33605;48.822;8.796;2023-01-08T03:05:50;10.10;53.00
47845;DHT22;33605;48.822;8.796;2023-01-08T03:08:17;10.10;53.00
47845;DHT22;33605;48.822;8.796;2023-01-08T03:10:45;10.10;52.90
47845;DHT22;33605;48.822;8.796;2023-01-08T03:13:18;10.10;52.80
47845;DHT22;33605;48.822;8.796;2023-01-08T03:15:52;10.20;52.90
47845;DHT22;33605;48.822;8.796;2023-01-08T03:18:25;10.20;52.70
47845;DHT22;33605;48.822;8.796;2023-01-08T03:20:53;10.20;52.70
47845;DHT22;33605;48.822;8.796;2023-01-08T03:23:20;10.20;52.70
47845;DHT22;33605;48.822;8.796;2023-01-08T03:25:47;10.20;52.60
47845;DHT22;33605;48.822;8.796;2023-01-08T03:28:24;10.20;52.50
47845;DHT22;33605;48.822;8.796;2023-01-08T03:30:55;10.30;52.50
47845;DHT22;33605;48.822;8.796;2023-01-08T03:33:23;10.30;52.40
47845;DHT22;33605;48.822;8.796;2023-01-08T03:35:52;10.30;52.30
47845;DHT22;33605;48.822;8.796;2023-01-08T03:38:45;10.30;52.30
47845;DHT22;33605;48.822;8.796;2023-01-08T03:41:14;10.30;52.30
47845;DHT22;33605;48.822;8.796;2023-01-08T03:43:40;10.40;52.40
47845;DHT22;33605;48.822;8.796;2023-01-08T03:46:21;10.40;52.40
47845;DHT22;33605;48.822;8.796;2023-01-08T03:48:48;10.40;52.30
47845;DHT22;33605;48.822;8.796;2023-01-08T03:51:15;10.40;52.20
47845;DHT22;33605;48.822;8.796;2023-01-08T03:53:40;10.40;52.10
47845;DHT22;33605;48.822;8.796;2023-01-08T03:56:06;10.50;52.20
47845;DHT22;33605;48.822;8.796;2023-01-08T03:58:32;10.50;52.10
47845;DHT22;33605;48.822;8.796;2023-01-08T04:00:57;10.50;52.00
47845;DHT22;33605;48.822;8.796;2023-01-08T04:03:23;10.50;52.00
47845;DHT22;33605;48.822;8.796;2023-01-08T04:05:49;10.50;51.90
47845;DHT22;33605;48.822;8.796;2023-01-08T04:08:14;10.50;52.00
47845;DHT22;33605;48.822;8.796;2023-01-08T04:10:40;10.50;52.00
47845;DHT22;33605;48.822;8.796;2023-01-08T04:13:06;10.50;51.90
47845;DHT22;33605;48.822;8.796;2023-01-08T04:15:32;10.60;51.90
47845;DHT22;33605;48.822;8.796;2023-01-08T04:17:58;10.50;51.80
47845;DHT22;33605;48.822;8.796;2023-01-08T04:20:23;10.50;51.90
47845;DHT22;33605;48.822;8.796;2023-01-08T04:22:49;10.50;52.00
47845;DHT22;33605;48.822;8.796;2023-01-08T04:25:14;10.50;52.10
47845;DHT22;33605;48.822;8.796;2023-01-08T04:27:40;10.50;52.10
47845;DHT22;33605;48.822;8.796;2023-01-08T04:30:06;10.50;52.20
47845;DHT22;33605;48.822;8.796;2023-01-08T04:32:32;10.50;52.30
47845;DHT22;33605;48.822;8.796;2023-01-08T04:34:57;10.50;52.40
47845;DHT22;33605;48.822;8.796;2023-01-08T04:37:23;10.40;52.40
47845;DHT22;33605;48.822;8.796;2023-01-08T04:39:48;10.40;52.50
47845;DHT22;33605;48.822;8.796;2023-01-08T04:42:14;10.40;52.60
47845;DHT22;33605;48.822;8.796;2023-01-08T04:44:39;10.40;52.60
47845;DHT22;33605;48.822;8.796;2023-01-08T04:47:05;10.40;52.60
47845;DHT22;33605;48.822;8.796;2023-01-08T04:49:30;10.40;52.70
47845;DHT22;33605;48.822;8.796;2023-01-08T04:51:56;10.40;52.90
47845;DHT22;33605;48.822;8.796;2023-01-08T04:54:22;10.30;52.90
47845;DHT22;33605;48.822;8.796;2023-01-08T04:56:50;10.30;52.90
47845;DHT22;33605;48.822;8.796;2023-01-08T04:59:16;10.30;52.90
47845;DHT22;33605;48.822;8.796;2023-01-08T05:01:42;10.30;52.90
47845;DHT22;33605;48.822;8.796;2023-01-08T05:04:10;10.30;53.00
47845;DHT22;33605;48.822;8.796;2023-01-08T05:06:35;10.40;53.10
47845;DHT22;33605;48.822;8.796;2023-01-08T05:09:01;10.30;53.00
47845;DHT22;33605;48.822;8.796;2023-01-08T05:11:27;10.30;53.00
47845;DHT22;33605;48.822;8.796;2023-01-08T05:13:52;10.30;53.10
47845;DHT22;33605;48.822;8.796;2023-01-08T05:16:18;10.30;53.10
47845;DHT22;33605;48.822;8.796;2023-01-08T05:18:44;10.30;53.20
47845;DHT22;33605;48.822;8.796;2023-01-08T05:21:10;10.30;53.20
47845;DHT22;33605;48.822;8.796;2023-01-08T05:23:36;10.30;53.10
47845;DHT22;33605;48.822;8.796;2023-01-08T05:26:04;10.30;53.20
47845;DHT22;33605;48.822;8.796;2023-01-08T05:28:31;10.40;53.40
47845;DHT22;33605;48.822;8.796;2023-01-08T05:30:57;10.30;53.30
47845;DHT22;33605;48.822;8.796;2023-01-08T05:33:23;10.40;53.40
47845;DHT22;33605;48.822;8.796;2023-01-08T05:35:49;10.40;53.40
47845;DHT22;33605;48.822;8.796;2023-01-08T05:38:15;10.40;53.40
47845;DHT22;33605;48.822;8.796;2023-01-08T05:40:40;10.40;53.50
47845;DHT22;33605;48.822;8.796;2023-01-08T05:43:06;10.40;53.60
47845;DHT22;33605;48.822;8.796;2023-01-08T05:45:32;10.40;53.80
47845;DHT22;33605;48.822;8.796;2023-01-08T05:47:58;10.40;53.90
47845;DHT22;33605;48.822;8.796;2023-01-08T05:50:24;10.40;54.10
47845;DHT22;33605;48.822;8.796;2023-01-08T05:52:50;10.30;54.10
47845;DHT22;33605;48.822;8.796;2023-01-08T05:55:15;10.30;54.70
47845;DHT22;33605;48.822;8.796;2023-01-08T05:57:41;10.40;55.00
47845;DHT22;33605;48.822;8.796;2023-01-08T06:00:08;10.40;55.30
47845;DHT22;33605;48.822;8.796;2023-01-08T06:02:34;10.40;55.50
47845;DHT22;33605;48.822;8.796;2023-01-08T06:05:00;10.40;55.80
47845;DHT22;33605;48.822;8.796;2023-01-08T06:07:28;10.40;56.20
47845;DHT22;33605;48.822;8.796;2023-01-08T06:09:53;10.40;56.40
47845;DHT22;33605;48.822;8.796;2023-01-08T06:12:19;10.40;56.80
47845;DHT22;33605;48.822;8.796;2023-01-08T06:14:45;10.40;57.00
47845;DHT22;33605;48.822;8.796;2023-01-08T06:17:10;10.40;57.20
47845;DHT22;33605;48.822;8.796;2023-01-08T06:19:36;10.40;57.30
47845;DHT22;33605;48.822;8.796;2023-01-08T06:22:04;10.40;57.40
47845;DHT22;33605;48.822;8.796;2023-01-08T06:24:29;10.50;57.50
47845;DHT22;33605;48.822;8.796;2023-01-08T06:26:55;10.50;57.50
47845;DHT22;33605;48.822;8.796;2023-01-08T06:29:20;10.60;57.90
47845;DHT22;33605;48.822;8.796;2023-01-08T06:31:46;10.50;57.80
47845;DHT22;33605;48.822;8.796;2023-01-08T06:34:11;10.60;58.10
47845;DHT22;33605;48.822;8.796;2023-01-08T06:36:37;10.60;58.20
47845;DHT22;33605;48.822;8.796;2023-01-08T06:39:05;10.60;58.50
47845;DHT22;33605;48.822;8.796;2023-01-08T06:41:30;10.60;58.40
47845;DHT22;33605;48.822;8.796;2023-01-08T06:43:56;10.60;58.50
47845;DHT22;33605;48.822;8.796;2023-01-08T06:46:21;10.70;58.70
47845;DHT22;33605;48.822;8.796;2023-01-08T06:48:47;10.70;58.80
47845;DHT22;33605;48.822;8.796;2023-01-08T06:51:12;10.70;59.10
47845;DHT22;33605;48.822;8.796;2023-01-08T06:53:38;10.70;59.10
47845;DHT22;33605;48.822;8.796;2023-01-08T06:56:04;10.70;59.10
47845;DHT22;33605;48.822;8.796;2023-01-08T06:58:31;10.70;59.30
47845;DHT22;33605;48.822;8.796;2023-01-08T07:00:57;10.70;59.40
47845;DHT22;33605;48.822;8.796;2023-01-08T07:03:23;10.70;59.60
47845;DHT22;33605;48.822;8.796;2023-01-08T07:05:49;10.70;59.60
47845;DHT22;33605;48.822;8.796;2023-01-08T07:08:16;10.80;59.90
47845;DHT22;33605;48.822;8.796;2023-01-08T07:10:42;10.70;59.90
47845;DHT22;33605;48.822;8.796;2023-01-08T07:13:08;10.70;59.90
47845;DHT22;33605;48.822;8.796;2023-01-08T07:15:38;10.80;60.00
47845;DHT22;33605;48.822;8.796;2023-01-08T07:18:04;10.80;60.20
47845;DHT22;33605;48.822;8.796;2023-01-08T07:20:31;10.80;60.30
47845;DHT22;33605;48.822;8.796;2023-01-08T07:23:08;10.80;60.40
47845;DHT22;33605;48.822;8.796;2023-01-08T07:25:34;10.70;60.50
47845;DHT22;33605;48.822;8.796;2023-01-08T07:27:59;10.80;60.60
47845;DHT22;33605;48.822;8.796;2023-01-08T07:30:25;10.80;60.60
47845;DHT22;33605;48.822;8.796;2023-01-08T07:32:51;10.80;60.70
47845;DHT22;33605;48.822;8.796;2023-01-08T07:35:17;10.90;60.90
47845;DHT22;33605;48.822;8.796;2023-01-08T07:37:43;10.80;60.90
47845;DHT22;33605;48.822;8.796;2023-01-08T07:40:10;10.90;60.90
47845;DHT22;33605;48.822;8.796;2023-01-08T07:42:36;10.80;60.90
47845;DHT22;33605;48.822;8.796;2023-01-08T07:45:02;10.90;60.90
47845;DHT22;33605;48.822;8.796;2023-01-08T07:47:27;10.90;60.90
47845;DHT22;33605;48.822;8.796;2023-01-08T07:49:53;11.00;61.00
47845;DHT22;33605;48.822;8.796;2023-01-08T07:52:18;11.00;61.10
47845;DHT22;33605;48.822;8.796;2023-01-08T07:54:44;11.00;61.10
47845;DHT22;33605;48.822;8.796;2023-01-08T07:57:09;11.00;61.20
47845;DHT22;33605;48.822;8.796;2023-01-08T07:59:35;10.90;61.10
47845;DHT22;33605;48.822;8.796;2023-01-08T08:02:01;11.00;61.40
47845;DHT22;33605;48.822;8.796;2023-01-08T08:04:26;11.00;61.40
47845;DHT22;33605;48.822;8.796;2023-01-08T08:06:53;11.00;61.40
47845;DHT22;33605;48.822;8.796;2023-01-08T08:09:19;11.00;61.60
47845;DHT22;33605;48.822;8.796;2023-01-08T08:11:44;10.90;61.70
47845;DHT22;33605;48.822;8.796;2023-01-08T08:14:10;10.90;61.80
47845;DHT22;33605;48.822;8.796;2023-01-08T08:16:35;10.90;61.90
47845;DHT22;33605;48.822;8.796;2023-01-08T08:19:01;10.90;61.90
47845;DHT22;33605;48.822;8.796;2023-01-08T08:21:27;10.90;62.00
47845;DHT22;33605;48.822;8.796;2023-01-08T08:23:54;10.90;62.10
47845;DHT22;33605;48.822;8.796;2023-01-08T08:26:19;10.90;62.20
47845;DHT22;33605;48.822;8.796;2023-01-08T08:28:45;10.90;62.20
47845;DHT22;33605;48.822;8.796;2023-01-08T08:31:10;11.00;62.20
47845;DHT22;33605;48.822;8.796;2023-01-08T08:33:36;10.90;62.20
47845;DHT22;33605;48.822;8.796;2023-01-08T08:36:02;11.00;62.30
47845;DHT22;33605;48.822;8.796;2023-01-08T08:38:28;11.00;62.80
47845;DHT22;33605;48.822;8.796;2023-01-08T08:40:54;11.00;62.40
47845;DHT22;33605;48.822;8.796;2023-01-08T08:43:23;11.00;62.50
47845;DHT22;33605;48.822;8.796;2023-01-08T08:45:49;11.00;62.50
47845;DHT22;33605;48.822;8.796;2023-01-08T08:48:15;11.00;62.50
47845;DHT22;33605;48.822;8.796;2023-01-08T08:50:41;11.00;62.50
47845;DHT22;33605;48.822;8.796;2023-01-08T08:53:09;11.00;62.60
47845;DHT22;33605;48.822;8.796;2023-01-08T08:55:35;11.00;62.60
47845;DHT22;33605;48.822;8.796;2023-01-08T08:58:03;11.00;62.60
47845;DHT22;33605;48.822;8.796;2023-01-08T09:00:29;11.00;62.70
47845;DHT22;33605;48.822;8.796;2023-01-08T09:02:55;11.00;62.70
47845;DHT22;33605;48.822;8.796;2023-01-08T09:05:21;11.00;62.80
47845;DHT22;33605;48.822;8.796;2023-01-08T09:07:46;11.00;62.80
47845;DHT22;33605;48.822;8.796;2023-01-08T09:10:12;11.00;62.70
47845;DHT22;33605;48.822;8.796;2023-01-08T09:12:37;11.10;62.70
47845;DHT22;33605;48.822;8.796;2023-01-08T09:15:03;11.10;62.70
47845;DHT22;33605;48.822;8.796;2023-01-08T09:17:29;11.10;62.70
47845;DHT22;33605;48.822;8.796;2023-01-08T09:19:55;11.10;62.70
47845;DHT22;33605;48.822;8.796;2023-01-08T09:22:21;11.10;62.70
47845;DHT22;33605;48.822;8.796;2023-01-08T09:24:46;11.20;62.90
47845;DHT22;33605;48.822;8.796;2023-01-08T09:27:13;11.20;62.90
47845;DHT22;33605;48.822;8.796;2023-01-08T09:29:38;11.20;62.90
47845;DHT22;33605;48.822;8.796;2023-01-08T09:32:05;11.10;62.90
47845;DHT22;33605;48.822;8.796;2023-01-08T09:34:32;11.20;63.00
47845;DHT22;33605;48.822;8.796;2023-01-08T09:36:57;11.20;63.00
47845;DHT22;33605;48.822;8.796;2023-01-08T09:39:23;11.20;63.00
47845;DHT22;33605;48.822;8.796;2023-01-08T09:41:49;11.20;63.00
47845;DHT22;33605;48.822;8.796;2023-01-08T09:46:49;11.20;63.00
47845;DHT22;33605;48.822;8.796;2023-01-08T15:14:22;11.20;63.40
47845;DHT22;33605;48.822;8.796;2023-01-08T15:16:50;16.80;44.70
47845;DHT22;33605;48.822;8.796;2023-01-08T15:19:25;16.50;44.80
47845;DHT22;33605;48.822;8.796;2023-01-08T15:21:54;16.20;45.00
47845;DHT22;33605;48.822;8.796;2023-01-08T15:24:33;16.00;45.20
47845;DHT22;33605;48.822;8.796;2023-01-08T15:27:00;15.80;45.60
47845;DHT22;33605;48.822;8.796;2023-01-08T15:29:47;15.60;45.90
47845;DHT22;33605;48.822;8.796;2023-01-08T15:34:39;15.20;46.40
47845;DHT22;33605;48.822;8.796;2023-01-08T15:37:05;15.00;46.80
47845;DHT22;33605;48.822;8.796;2023-01-08T15:39:30;14.80;47.00
47845;DHT22;33605;48.822;8.796;2023-01-08T15:41:59;14.60;47.20
47845;DHT22;33605;48.822;8.796;2023-01-08T15:44:45;14.50;47.70
47845;DHT22;33605;48.822;8.796;2023-01-08T15:47:11;14.30;47.90
47845;DHT22;33605;48.822;8.796;2023-01-08T15:49:37;14.20;48.10
47845;DHT22;33605;48.822;8.796;2023-01-08T15:52:03;14.10;48.50
47845;DHT22;33605;48.822;8.796;2023-01-08T15:54:28;14.00;48.60
47845;DHT22;33605;48.822;8.796;2023-01-08T15:56:54;13.90;48.90
47845;DHT22;33605;48.822;8.796;2023-01-08T15:59:21;13.80;49.10
47845;DHT22;33605;48.822;8.796;2023-01-08T16:01:46;13.70;49.30
47845;DHT22;33605;48.822;8.796;2023-01-08T16:04:12;13.60;49.50
47845;DHT22;33605;48.822;8.796;2023-01-08T16:06:37;13.60;49.90
47845;DHT22;33605;48.822;8.796;2023-01-08T16:09:03;13.50;50.10
47845;DHT22;33605;48.822;8.796;2023-01-08T16:11:29;13.40;50.40
47845;DHT22;33605;48.822;8.796;2023-01-08T16:13:54;13.30;50.50
47845;DHT22;33605;48.822;8.796;2023-01-08T16:16:20;13.30;50.90
47845;DHT22;33605;48.822;8.796;2023-01-08T16:18:46;13.20;51.00
47845;DHT22;33605;48.822;8.796;2023-01-08T16:21:13;13.10;51.30
47845;DHT22;33605;48.822;8.796;2023-01-08T16:23:39;13.00;51.30
47845;DHT22;33605;48.822;8.796;2023-01-08T16:28:31;13.00;51.80
47845;DHT22;33605;48.822;8.796;2023-01-08T16:30:57;12.90;51.80
47845;DHT22;33605;48.822;8.796;2023-01-08T16:33:23;12.90;52.00
47845;DHT22;33605;48.822;8.796;2023-01-08T16:35:59;12.90;52.30
47845;DHT22;33605;48.822;8.796;2023-01-08T16:38:25;12.80;52.50
47845;DHT22;33605;48.822;8.796;2023-01-08T16:40:55;12.90;52.50
47845;DHT22;33605;48.822;8.796;2023-01-08T16:43:26;12.80;52.60
47845;DHT22;33605;48.822;8.796;2023-01-08T16:45:52;12.80;52.90
47845;DHT22;33605;48.822;8.796;2023-01-08T16:48:20;12.80;52.80
47845;DHT22;33605;48.822;8.796;2023-01-08T16:50:46;12.80;52.90
47845;DHT22;33605;48.822;8.796;2023-01-08T16:53:12;12.80;53.10
47845;DHT22;33605;48.822;8.796;2023-01-08T16:55:39;12.80;53.10
47845;DHT22;33605;48.822;8.796;2023-01-08T16:58:05;12.80;53.20
47845;DHT22;33605;48.822;8.796;2023-01-08T17:00:33;12.80;53.30
47845;DHT22;33605;48.822;8.796;2023-01-08T17:02:59;12.80;53.40
47845;DHT22;33605;48.822;8.796;2023-01-08T17:05:25;12.80;53.40
47845;DHT22;33605;48.822;8.796;2023-01-08T17:07:51;12.80;53.50
47845;DHT22;33605;48.822;8.796;2023-01-08T17:10:17;12.80;53.60
47845;DHT22;33605;48.822;8.796;2023-01-08T17:12:43;12.80;53.60
47845;DHT22;33605;48.822;8.796;2023-01-08T17:15:09;12.80;53.70
47845;DHT22;33605;48.822;8.796;2023-01-08T17:17:35;12.70;53.60
47845;DHT22;33605;48.822;8.796;2023-01-08T17:20:01;12.80;53.80
47845;DHT22;33605;48.822;8.796;2023-01-08T17:22:26;12.70;53.70
47845;DHT22;33605;48.822;8.796;2023-01-08T17:24:52;12.70;53.80
47845;DHT22;33605;48.822;8.796;2023-01-08T17:27:18;12.70;53.80
47845;DHT22;33605;48.822;8.796;2023-01-08T17:29:44;12.70;53.90
47845;DHT22;33605;48.822;8.796;2023-01-08T17:32:10;12.70;54.10
47845;DHT22;33605;48.822;8.796;2023-01-08T17:34:37;12.70;54.30
47845;DHT22;33605;48.822;8.796;2023-01-08T17:37:02;12.60;54.30
47845;DHT22;33605;48.822;8.796;2023-01-08T17:39:28;12.60;54.40
47845;DHT22;33605;48.822;8.796;2023-01-08T17:41:54;12.60;54.50
47845;DHT22;33605;48.822;8.796;2023-01-08T17:44:39;12.50;54.40
47845;DHT22;33605;48.822;8.796;2023-01-08T17:47:04;12.50;54.50
47845;DHT22;33605;48.822;8.796;2023-01-08T17:49:30;12.50;54.50
47845;DHT22;33605;48.822;8.796;2023-01-08T17:51:56;12.50;54.60
47845;DHT22;33605;48.822;8.796;2023-01-08T17:54:23;12.40;54.60
47845;DHT22;33605;48.822;8.796;2023-01-08T17:56:49;12.40;54.70
47845;DHT22;33605;48.822;8.796;2023-01-08T17:59:16;12.40;55.00
47845;DHT22;33605;48.822;8.796;2023-01-08T18:01:43;12.30;55.00
47845;DHT22;33605;48.822;8.796;2023-01-08T18:04:10;12.30;55.10
47845;DHT22;33605;48.822;8.796;2023-01-08T18:06:36;12.20;55.10
47845;DHT22;33605;48.822;8.796;2023-01-08T18:09:02;12.20;55.20
47845;DHT22;33605;48.822;8.796;2023-01-08T18:11:29;12.20;55.30
47845;DHT22;33605;48.822;8.796;2023-01-08T18:14:01;12.20;55.30
47845;DHT22;33605;48.822;8.796;2023-01-08T18:16:28;12.20;55.40
47845;DHT22;33605;48.822;8.796;2023-01-08T18:18:58;12.20;55.40
47845;DHT22;33605;48.822;8.796;2023-01-08T18:21:25;12.20;56.20
47845;DHT22;33605;48.822;8.796;2023-01-08T18:23:51;12.20;55.60
47845;DHT22;33605;48.822;8.796;2023-01-08T18:26:18;12.20;55.60
47845;DHT22;33605;48.822;8.796;2023-01-08T18:28:45;12.20;55.60
47845;DHT22;33605;48.822;8.796;2023-01-08T18:31:12;12.20;55.60
47845;DHT22;33605;48.822;8.796;2023-01-08T18:33:39;12.20;55.60
47845;DHT22;33605;48.822;8.796;2023-01-08T18:36:07;12.30;55.70
47845;DHT22;33605;48.822;8.796;2023-01-08T18:38:41;12.20;55.70
47845;DHT22;33605;48.822;8.796;2023-01-08T18:41:08;12.20;55.80
47845;DHT22;33605;48.822;8.796;2023-01-08T18:43:35;12.20;55.70
47845;DHT22;33605;48.822;8.796;2023-01-08T18:46:02;12.20;55.80
47845;DHT22;33605;48.822;8.796;2023-01-08T18:48:29;12.20;55.90
47845;DHT22;33605;48.822;8.796;2023-01-08T18:50:55;12.10;55.90
47845;DHT22;33605;48.822;8.796;2023-01-08T18:53:21;12.10;56.00
47845;DHT22;33605;48.822;8.796;2023-01-08T18:55:47;12.10;56.00
47845;DHT22;33605;48.822;8.796;2023-01-08T18:58:14;12.10;56.10
47845;DHT22;33605;48.822;8.796;2023-01-08T19:00:40;12.00;56.20
47845;DHT22;33605;48.822;8.796;2023-01-08T19:03:06;12.00;56.40
47845;DHT22;33605;48.822;8.796;2023-01-08T19:05:38;12.00;56.60
47845;DHT22;33605;48.822;8.796;2023-01-08T19:08:07;12.00;56.80
47845;DHT22;33605;48.822;8.796;2023-01-08T19:10:35;11.90;56.80
47845;DHT22;33605;48.822;8.796;2023-01-08T19:13:01;11.90;57.00
47845;DHT22;33605;48.822;8.796;2023-01-08T19:15:26;11.90;57.00
47845;DHT22;33605;48.822;8.796;2023-01-08T19:17:52;11.90;57.10
47845;DHT22;33605;48.822;8.796;2023-01-08T19:20:17;11.90;57.10
47845;DHT22;33605;48.822;8.796;2023-01-08T19:22:43;11.90;57.80
47845;DHT22;33605;48.822;8.796;2023-01-08T19:25:09;11.90;57.10
47845;DHT22;33605;48.822;8.796;2023-01-08T19:27:34;12.00;57.30
47845;DHT22;33605;48.822;8.796;2023-01-08T19:30:01;11.90;57.10
47845;DHT22;33605;48.822;8.796;2023-01-08T19:32:27;11.90;57.10
47845;DHT22;33605;48.822;8.796;2023-01-08T19:34:52;11.90;57.10
47845;DHT22;33605;48.822;8.796;2023-01-08T19:37:18;11.90;57.10
47845;DHT22;33605;48.822;8.796;2023-01-08T19:39:44;11.80;57.10
47845;DHT22;33605;48.822;8.796;2023-01-08T19:42:10;11.80;57.30
47845;DHT22;33605;48.822;8.796;2023-01-08T19:44:55;11.80;57.40
47845;DHT22;33605;48.822;8.796;2023-01-08T19:47:21;11.80;57.50
47845;DHT22;33605;48.822;8.796;2023-01-08T19:49:47;11.80;57.60
47845;DHT22;33605;48.822;8.796;2023-01-08T19:52:14;11.70;57.50
47845;DHT22;33605;48.822;8.796;2023-01-08T19:54:40;11.70;57.70
47845;DHT22;33605;48.822;8.796;2023-01-08T19:57:06;11.70;57.80
47845;DHT22;33605;48.822;8.796;2023-01-08T19:59:31;11.60;57.80
47845;DHT22;33605;48.822;8.796;2023-01-08T20:01:57;11.60;58.70
47845;DHT22;33605;48.822;8.796;2023-01-08T20:04:23;11.60;58.20
47845;DHT22;33605;48.822;8.796;2023-01-08T20:06:48;11.60;58.30
47845;DHT22;33605;48.822;8.796;2023-01-08T20:09:16;11.60;58.50
47845;DHT22;33605;48.822;8.796;2023-01-08T20:11:42;11.50;58.50
47845;DHT22;33605;48.822;8.796;2023-01-08T20:14:08;11.50;58.90
47845;DHT22;33605;48.822;8.796;2023-01-08T20:16:33;11.40;59.10
47845;DHT22;33605;48.822;8.796;2023-01-08T20:19:00;11.30;59.70
47845;DHT22;33605;48.822;8.796;2023-01-08T20:21:29;11.30;60.00
47845;DHT22;33605;48.822;8.796;2023-01-08T20:23:58;11.30;60.00
47845;DHT22;33605;48.822;8.796;2023-01-08T20:26:26;11.30;60.20
47845;DHT22;33605;48.822;8.796;2023-01-08T20:28:53;11.30;60.30
47845;DHT22;33605;48.822;8.796;2023-01-08T20:31:20;11.30;60.50
47845;DHT22;33605;48.822;8.796;2023-01-08T20:33:46;11.30;60.60
47845;DHT22;33605;48.822;8.796;2023-01-08T20:36:15;11.20;60.70
47845;DHT22;33605;48.822;8.796;2023-01-08T20:38:41;11.20;61.00
47845;DHT22;33605;48.822;8.796;2023-01-08T20:41:08;11.20;61.30
47845;DHT22;33605;48.822;8.796;2023-01-08T20:43:35;11.10;61.30
47845;DHT22;33605;48.822;8.796;2023-01-08T20:46:01;11.10;61.60
47845;DHT22;33605;48.822;8.796;2023-01-08T20:48:27;11.10;61.60
47845;DHT22;33605;48.822;8.796;2023-01-08T20:50:57;11.10;61.80
47845;DHT22;33605;48.822;8.796;2023-01-08T20:53:23;11.00;61.90
47845;DHT22;33605;48.822;8.796;2023-01-08T20:55:49;11.00;62.10
47845;DHT22;33605;48.822;8.796;2023-01-08T20:58:15;11.00;62.10
47845;DHT22;33605;48.822;8.796;2023-01-08T21:00:41;11.00;62.20
47845;DHT22;33605;48.822;8.796;2023-01-08T21:03:07;11.00;62.30
47845;DHT22;33605;48.822;8.796;2023-01-08T21:05:33;11.00;62.40
47845;DHT22;33605;48.822;8.796;2023-01-08T21:08:01;11.00;62.50
47845;DHT22;33605;48.822;8.796;2023-01-08T21:10:26;11.00;62.70
47845;DHT22;33605;48.822;8.796;2023-01-08T21:12:52;11.00;62.70
47845;DHT22;33605;48.822;8.796;2023-01-08T21:15:18;10.90;62.80
47845;DHT22;33605;48.822;8.796;2023-01-08T21:17:46;10.90;62.80